sensor_id;sensor_type;location;lat;lon;timestamp;pressure;altitude;pressure_sealevel;temperature;humidity
9764;BME280;4921;43.214;27.936;2023-05-11T00:02:17;101670.97;;;12.54;100.00
9764;BME280;4921;43.214;27.936;2023-05-11T00:04:44;101670.66;;;12.59;100.00
9764;BME280;4921;43.214;27.936;2023-05-11T00:07:10;101672.00;;;12.64;100.00
9764;BME280;4921;43.214;27.936;2023-05-11T00:09:37;101672.56;;;12.57;100.00
9764;BME280;4921;43.214;27.936;2023-05-11T00:12:07;101671.16;;;12.64;100.00
9764;BME280;4921;43.214;27.936;2023-05-11T00:14:34;101679.72;;;12.67;100.00
9764;BME280;4921;43.214;27.936;2023-05-11T00:17:01;101677.06;;;12.67;100.00
9764;BME280;4921;43.214;27.936;2023-05-11T00:19:28;101680.97;;;12.74;100.00
9764;BME280;4921;43.214;27.936;2023-05-11T00:21:56;101670.50;;;12.73;100.00
9764;BME280;4921;43.214;27.936;2023-05-11T00:24:23;101675.69;;;12.74;100.00
9764;BME280;4921;43.214;27.936;2023-05-11T00:26:50;101660.50;;;12.65;100.00
9764;BME280;4921;43.214;27.936;2023-05-11T00:29:19;101664.75;;;12.79;100.00
9764;BME280;4921;43.214;27.936;2023-05-11T00:31:46;101672.16;;;12.86;100.00
9764;BME280;4921;43.214;27.936;2023-05-11T00:34:14;101676.56;;;12.86;100.00
9764;BME280;4921;43.214;27.936;2023-05-11T00:36:42;101676.69;;;12.84;100.00
9764;BME280;4921;43.214;27.936;2023-05-11T00:39:10;101682.31;;;12.80;100.00
9764;BME280;4921;43.214;27.936;2023-05-11T00:41:38;101678.28;;;12.87;100.00
9764;BME280;4921;43.214;27.936;2023-05-11T00:44:05;101684.28;;;12.89;100.00
9764;BME280;4921;43.214;27.936;2023-05-11T00:46:35;101678.56;;;12.95;100.00
9764;BME280;4921;43.214;27.936;2023-05-11T00:49:03;101681.72;;;13.00;100.00
9764;BME280;4921;43.214;27.936;2023-05-11T00:51:31;101674.75;;;12.99;100.00
9764;BME280;4921;43.214;27.936;2023-05-11T00:53:58;101676.31;;;13.01;100.00
9764;BME280;4921;43.214;27.936;2023-05-11T00:56:27;101667.34;;;13.04;100.00
9764;BME280;4921;43.214;27.936;2023-05-11T00:58:54;101671.03;;;13.01;100.00
9764;BME280;4921;43.214;27.936;2023-05-11T01:01:21;101671.03;;;13.01;100.00
9764;BME280;4921;43.214;27.936;2023-05-11T01:03:49;101678.00;;;13.02;100.00
9764;BME280;4921;43.214;27.936;2023-05-11T01:06:21;101675.47;;;13.01;100.00
9764;BME280;4921;43.214;27.936;2023-05-11T01:08:57;101672.94;;;12.99;100.00
9764;BME280;4921;43.214;27.936;2023-05-11T01:11:33;101673.81;;;13.00;100.00
9764;BME280;4921;43.214;27.936;2023-05-11T01:14:11;101667.88;;;12.96;100.00
9764;BME280;4921;43.214;27.936;2023-05-11T01:16:40;101665.06;;;12.87;100.00
9764;BME280;4921;43.214;27.936;2023-05-11T01:19:20;101659.06;;;12.85;100.00
9764;BME280;4921;43.214;27.936;2023-05-11T01:21:50;101683.31;;;12.90;100.00
9764;BME280;4921;43.214;27.936;2023-05-11T01:24:28;101680.91;;;12.87;100.00
9764;BME280;4921;43.214;27.936;2023-05-11T01:27:19;101677.44;;;12.86;100.00
9764;BME280;4921;43.214;27.936;2023-05-11T01:32:52;101679.63;;;12.92;100.00
9764;BME280;4921;43.214;27.936;2023-05-11T01:35:22;101670.53;;;12.96;100.00
9764;BME280;4921;43.214;27.936;2023-05-11T01:37:53;101676.25;;;12.90;100.00
9764;BME280;4921;43.214;27.936;2023-05-11T01:40:23;101669.19;;;12.91;100.00
9764;BME280;4921;43.214;27.936;2023-05-11T01:42:57;101662.13;;;12.79;100.00
9764;BME280;4921;43.214;27.936;2023-05-11T01:45:25;101657.41;;;12.71;100.00
9764;BME280;4921;43.214;27.936;2023-05-11T01:47:54;101666.88;;;12.86;100.00
9764;BME280;4921;43.214;27.936;2023-05-11T01:50:23;101667.81;;;12.85;100.00
9764;BME280;4921;43.214;27.936;2023-05-11T01:52:52;101669.84;;;12.82;100.00
9764;BME280;4921;43.214;27.936;2023-05-11T01:55:21;101665.81;;;12.89;100.00
9764;BME280;4921;43.214;27.936;2023-05-11T01:57:51;101667.75;;;12.74;100.00
9764;BME280;4921;43.214;27.936;2023-05-11T02:00:19;101667.56;;;12.65;100.00
9764;BME280;4921;43.214;27.936;2023-05-11T02:02:47;101669.63;;;12.72;100.00
9764;BME280;4921;43.214;27.936;2023-05-11T02:05:18;101670.31;;;12.63;100.00
9764;BME280;4921;43.214;27.936;2023-05-11T02:07:47;101670.41;;;12.74;100.00
9764;BME280;4921;43.214;27.936;2023-05-11T02:10:15;101671.22;;;12.75;100.00
9764;BME280;4921;43.214;27.936;2023-05-11T02:12:43;101666.78;;;12.75;100.00
9764;BME280;4921;43.214;27.936;2023-05-11T02:15:11;101664.72;;;12.55;100.00
9764;BME280;4921;43.214;27.936;2023-05-11T02:17:40;101663.88;;;12.67;100.00
9764;BME280;4921;43.214;27.936;2023-05-11T02:20:09;101648.28;;;12.52;100.00
9764;BME280;4921;43.214;27.936;2023-05-11T02:22:38;101656.81;;;12.55;100.00
9764;BME280;4921;43.214;27.936;2023-05-11T02:25:07;101655.22;;;12.65;100.00
9764;BME280;4921;43.214;27.936;2023-05-11T02:27:35;101653.59;;;12.75;100.00
9764;BME280;4921;43.214;27.936;2023-05-11T02:30:03;101653.72;;;12.74;100.00
9764;BME280;4921;43.214;27.936;2023-05-11T02:32:33;101659.47;;;12.79;100.00
9764;BME280;4921;43.214;27.936;2023-05-11T02:35:10;101654.84;;;12.82;100.00
9764;BME280;4921;43.214;27.936;2023-05-11T02:37:42;101647.41;;;12.87;100.00
9764;BME280;4921;43.214;27.936;2023-05-11T02:40:15;101651.63;;;12.90;100.00
9764;BME280;4921;43.214;27.936;2023-05-11T02:42:44;101648.19;;;12.89;100.00
9764;BME280;4921;43.214;27.936;2023-05-11T02:45:13;101655.00;;;12.92;100.00
9764;BME280;4921;43.214;27.936;2023-05-11T02:47:44;101651.19;;;12.96;100.00
9764;BME280;4921;43.214;27.936;2023-05-11T02:50:12;101657.75;;;12.90;100.00
9764;BME280;4921;43.214;27.936;2023-05-11T02:52:44;101662.31;;;12.88;100.00
9764;BME280;4921;43.214;27.936;2023-05-11T02:55:12;101659.69;;;12.88;100.00
9764;BME280;4921;43.214;27.936;2023-05-11T02:57:41;101666.03;;;12.86;100.00
9764;BME280;4921;43.214;27.936;2023-05-11T03:00:09;101665.56;;;12.92;100.00
9764;BME280;4921;43.214;27.936;2023-05-11T03:02:36;101659.09;;;12.96;100.00
9764;BME280;4921;43.214;27.936;2023-05-11T03:05:04;101660.84;;;12.84;100.00
9764;BME280;4921;43.214;27.936;2023-05-11T03:07:32;101658.81;;;12.88;100.00
9764;BME280;4921;43.214;27.936;2023-05-11T03:10:00;101653.09;;;12.94;100.00
9764;BME280;4921;43.214;27.936;2023-05-11T03:12:29;101673.50;;;12.92;100.00
9764;BME280;4921;43.214;27.936;2023-05-11T03:14:59;101668.22;;;12.92;100.00
9764;BME280;4921;43.214;27.936;2023-05-11T03:17:29;101676.69;;;12.84;100.00
9764;BME280;4921;43.214;27.936;2023-05-11T03:19:57;101668.31;;;12.90;100.00
9764;BME280;4921;43.214;27.936;2023-05-11T03:22:28;101674.84;;;12.97;100.00
9764;BME280;4921;43.214;27.936;2023-05-11T03:24:56;101686.53;;;12.82;100.00
9764;BME280;4921;43.214;27.936;2023-05-11T03:27:26;101677.44;;;12.86;100.00
9764;BME280;4921;43.214;27.936;2023-05-11T03:29:54;101683.97;;;12.93;100.00
9764;BME280;4921;43.214;27.936;2023-05-11T03:32:22;101683.50;;;12.99;100.00
9764;BME280;4921;43.214;27.936;2023-05-11T03:34:49;101679.50;;;13.07;100.00
9764;BME280;4921;43.214;27.936;2023-05-11T03:37:18;101685.09;;;13.02;100.00
9764;BME280;4921;43.214;27.936;2023-05-11T03:39:47;101688.16;;;13.09;100.00
9764;BME280;4921;43.214;27.936;2023-05-11T03:42:18;101680.53;;;13.04;100.00
9764;BME280;4921;43.214;27.936;2023-05-11T03:44:48;101682.25;;;13.05;100.00
9764;BME280;4921;43.214;27.936;2023-05-11T03:47:21;101683.38;;;13.14;100.00
9764;BME280;4921;43.214;27.936;2023-05-11T03:49:48;101691.28;;;13.14;100.00
9764;BME280;4921;43.214;27.936;2023-05-11T03:52:17;101688.44;;;13.17;100.00
9764;BME280;4921;43.214;27.936;2023-05-11T03:54:45;101688.78;;;12.99;100.00
9764;BME280;4921;43.214;27.936;2023-05-11T03:57:12;101695.22;;;13.08;100.00
9764;BME280;4921;43.214;27.936;2023-05-11T03:59:40;101689.78;;;13.22;100.00
9764;BME280;4921;43.214;27.936;2023-05-11T04:02:08;101699.16;;;13.26;100.00
9764;BME280;4921;43.214;27.936;2023-05-11T04:04:35;101691.25;;;13.50;100.00
9764;BME280;4921;43.214;27.936;2023-05-11T04:07:02;101695.50;;;13.74;100.00
9764;BME280;4921;43.214;27.936;2023-05-11T04:09:29;101686.63;;;13.87;100.00
9764;BME280;4921;43.214;27.936;2023-05-11T04:11:56;101689.81;;;14.03;100.00
9764;BME280;4921;43.214;27.936;2023-05-11T04:14:23;101697.28;;;14.20;100.00
9764;BME280;4921;43.214;27.936;2023-05-11T04:16:50;101707.25;;;14.05;100.00
9764;BME280;4921;43.214;27.936;2023-05-11T04:19:18;101702.75;;;13.84;100.00
9764;BME280;4921;43.214;27.936;2023-05-11T04:21:45;101708.13;;;13.71;100.00
9764;BME280;4921;43.214;27.936;2023-05-11T04:24:12;101712.69;;;13.69;100.00
9764;BME280;4921;43.214;27.936;2023-05-11T04:26:39;101699.13;;;13.85;100.00
9764;BME280;4921;43.214;27.936;2023-05-11T04:29:06;101706.16;;;13.97;100.00
9764;BME280;4921;43.214;27.936;2023-05-11T04:31:33;101706.97;;;13.86;100.00
9764;BME280;4921;43.214;27.936;2023-05-11T04:34:00;101705.16;;;13.87;100.00
9764;BME280;4921;43.214;27.936;2023-05-11T04:36:28;101709.59;;;13.75;100.00
9764;BME280;4921;43.214;27.936;2023-05-11T04:38:55;101712.09;;;13.42;100.00
9764;BME280;4921;43.214;27.936;2023-05-11T04:41:22;101715.56;;;13.42;100.00
9764;BME280;4921;43.214;27.936;2023-05-11T04:43:49;101716.34;;;13.55;100.00
9764;BME280;4921;43.214;27.936;2023-05-11T04:46:16;101714.78;;;13.29;100.00
9764;BME280;4921;43.214;27.936;2023-05-11T04:48:43;101720.41;;;13.48;100.00
9764;BME280;4921;43.214;27.936;2023-05-11T04:51:10;101729.28;;;13.71;100.00
9764;BME280;4921;43.214;27.936;2023-05-11T04:53:39;101724.84;;;13.48;100.00
9764;BME280;4921;43.214;27.936;2023-05-11T04:56:06;101734.00;;;13.55;100.00
9764;BME280;4921;43.214;27.936;2023-05-11T04:58:33;101731.94;;;13.71;100.00
9764;BME280;4921;43.214;27.936;2023-05-11T05:01:00;101731.38;;;13.55;100.00
9764;BME280;4921;43.214;27.936;2023-05-11T05:03:26;101744.50;;;13.67;100.00
9764;BME280;4921;43.214;27.936;2023-05-11T05:05:53;101733.00;;;13.68;100.00
9764;BME280;4921;43.214;27.936;2023-05-11T05:08:21;101739.00;;;13.70;100.00
9764;BME280;4921;43.214;27.936;2023-05-11T05:10:49;101751.75;;;13.76;100.00
9764;BME280;4921;43.214;27.936;2023-05-11T05:13:16;101745.31;;;13.57;100.00
9764;BME280;4921;43.214;27.936;2023-05-11T05:15:43;101746.09;;;13.70;100.00
9764;BME280;4921;43.214;27.936;2023-05-11T05:18:10;101752.44;;;13.67;100.00
9764;BME280;4921;43.214;27.936;2023-05-11T05:20:37;101768.22;;;13.69;100.00
9764;BME280;4921;43.214;27.936;2023-05-11T05:23:04;101749.25;;;13.51;100.00
9764;BME280;4921;43.214;27.936;2023-05-11T05:25:31;101756.78;;;13.68;100.00
9764;BME280;4921;43.214;27.936;2023-05-11T05:27:59;101752.88;;;13.85;100.00
9764;BME280;4921;43.214;27.936;2023-05-11T05:30:26;101753.81;;;13.73;100.00
9764;BME280;4921;43.214;27.936;2023-05-11T05:32:53;101761.78;;;13.84;100.00
9764;BME280;4921;43.214;27.936;2023-05-11T05:35:21;101763.19;;;13.77;100.00
9764;BME280;4921;43.214;27.936;2023-05-11T05:37:47;101766.84;;;13.63;100.00
9764;BME280;4921;43.214;27.936;2023-05-11T05:40:14;101767.97;;;13.72;100.00
9764;BME280;4921;43.214;27.936;2023-05-11T05:42:41;101767.88;;;13.85;100.00
9764;BME280;4921;43.214;27.936;2023-05-11T05:45:10;101769.81;;;13.83;100.00
9764;BME280;4921;43.214;27.936;2023-05-11T05:47:37;101763.09;;;13.90;100.00
9764;BME280;4921;43.214;27.936;2023-05-11T05:50:06;101772.78;;;14.13;100.00
9764;BME280;4921;43.214;27.936;2023-05-11T05:52:33;101772.47;;;14.28;100.00
9764;BME280;4921;43.214;27.936;2023-05-11T05:55:00;101781.34;;;14.16;100.00
9764;BME280;4921;43.214;27.936;2023-05-11T05:57:27;101781.47;;;14.26;100.00
9764;BME280;4921;43.214;27.936;2023-05-11T05:59:55;101779.69;;;14.26;100.00
9764;BME280;4921;43.214;27.936;2023-05-11T06:02:23;101781.66;;;14.35;100.00
9764;BME280;4921;43.214;27.936;2023-05-11T06:04:50;101776.75;;;14.53;100.00
9764;BME280;4921;43.214;27.936;2023-05-11T06:07:17;101777.81;;;14.39;100.00
9764;BME280;4921;43.214;27.936;2023-05-11T06:09:44;101773.84;;;14.34;100.00
9764;BME280;4921;43.214;27.936;2023-05-11T06:12:11;101777.94;;;14.38;100.00
9764;BME280;4921;43.214;27.936;2023-05-11T06:14:38;101787.47;;;14.40;100.00
9764;BME280;4921;43.214;27.936;2023-05-11T06:17:05;101787.47;;;14.40;100.00
9764;BME280;4921;43.214;27.936;2023-05-11T06:19:34;101790.91;;;14.41;100.00
9764;BME280;4921;43.214;27.936;2023-05-11T06:22:01;101789.16;;;14.52;100.00
9764;BME280;4921;43.214;27.936;2023-05-11T06:24:28;101796.59;;;14.59;100.00
9764;BME280;4921;43.214;27.936;2023-05-11T06:26:55;101797.28;;;14.38;100.00
9764;BME280;4921;43.214;27.936;2023-05-11T06:29:23;101789.09;;;14.30;100.00
9764;BME280;4921;43.214;27.936;2023-05-11T06:31:50;101795.50;;;14.39;100.00
9764;BME280;4921;43.214;27.936;2023-05-11T06:34:17;101796.94;;;14.43;100.00
9764;BME280;4921;43.214;27.936;2023-05-11T06:36:46;101788.03;;;14.33;100.00
9764;BME280;4921;43.214;27.936;2023-05-11T06:39:13;101786.31;;;14.32;100.00
9764;BME280;4921;43.214;27.936;2023-05-11T06:41:40;101789.50;;;14.13;100.00
9764;BME280;4921;43.214;27.936;2023-05-11T06:44:07;101790.78;;;13.97;100.00
9764;BME280;4921;43.214;27.936;2023-05-11T06:46:34;101779.13;;;13.99;100.00
9764;BME280;4921;43.214;27.936;2023-05-11T06:49:01;101794.97;;;14.23;100.00
9764;BME280;4921;43.214;27.936;2023-05-11T06:51:28;101792.66;;;14.18;100.00
9764;BME280;4921;43.214;27.936;2023-05-11T06:53:56;101786.09;;;14.00;100.00
9764;BME280;4921;43.214;27.936;2023-05-11T06:56:23;101796.94;;;13.73;100.00
9764;BME280;4921;43.214;27.936;2023-05-11T06:58:50;101796.16;;;13.84;100.00
9764;BME280;4921;43.214;27.936;2023-05-11T07:01:17;101797.38;;;13.91;100.00
9764;BME280;4921;43.214;27.936;2023-05-11T07:03:44;101791.69;;;14.19;100.00
9764;BME280;4921;43.214;27.936;2023-05-11T07:06:13;101794.19;;;14.44;100.00
9764;BME280;4921;43.214;27.936;2023-05-11T07:08:40;101790.72;;;14.55;100.00
9764;BME280;4921;43.214;27.936;2023-05-11T07:11:08;101804.06;;;14.65;100.00
9764;BME280;4921;43.214;27.936;2023-05-11T07:13:37;101795.50;;;14.50;100.00
9764;BME280;4921;43.214;27.936;2023-05-11T07:16:04;101800.47;;;14.55;100.00
9764;BME280;4921;43.214;27.936;2023-05-11T07:18:31;101799.13;;;14.60;100.00
9764;BME280;4921;43.214;27.936;2023-05-11T07:20:58;101808.16;;;14.80;100.00
9764;BME280;4921;43.214;27.936;2023-05-11T07:23:25;101815.16;;;14.81;100.00
9764;BME280;4921;43.214;27.936;2023-05-11T07:25:52;101816.75;;;14.94;100.00
9764;BME280;4921;43.214;27.936;2023-05-11T07:28:23;101812.53;;;15.03;100.00
9764;BME280;4921;43.214;27.936;2023-05-11T07:30:50;101824.31;;;14.99;100.00
9764;BME280;4921;43.214;27.936;2023-05-11T07:33:17;101813.13;;;15.06;100.00
9764;BME280;4921;43.214;27.936;2023-05-11T07:35:44;101823.72;;;14.95;100.00
9764;BME280;4921;43.214;27.936;2023-05-11T07:38:10;101821.66;;;14.99;100.00
9764;BME280;4921;43.214;27.936;2023-05-11T07:40:38;101834.31;;;14.95;100.00
9764;BME280;4921;43.214;27.936;2023-05-11T07:43:05;101825.16;;;15.10;100.00
9764;BME280;4921;43.214;27.936;2023-05-11T07:45:33;101828.53;;;15.01;100.00
9764;BME280;4921;43.214;27.936;2023-05-11T07:48:00;101828.28;;;14.93;100.00
9764;BME280;4921;43.214;27.936;2023-05-11T07:50:27;101830.81;;;14.84;100.00
9764;BME280;4921;43.214;27.936;2023-05-11T07:52:54;101823.09;;;15.14;100.00
9764;BME280;4921;43.214;27.936;2023-05-11T07:55:21;101823.34;;;15.00;100.00
9764;BME280;4921;43.214;27.936;2023-05-11T07:57:49;101822.75;;;14.96;100.00
9764;BME280;4921;43.214;27.936;2023-05-11T08:00:17;101842.03;;;14.98;100.00
9764;BME280;4921;43.214;27.936;2023-05-11T08:02:46;101832.00;;;14.80;100.00
9764;BME280;4921;43.214;27.936;2023-05-11T08:05:12;101832.84;;;14.80;100.00
9764;BME280;4921;43.214;27.936;2023-05-11T08:07:40;101834.41;;;14.72;100.00
9764;BME280;4921;43.214;27.936;2023-05-11T08:10:08;101833.19;;;14.65;100.00
9764;BME280;4921;43.214;27.936;2023-05-11T08:12:35;101838.03;;;14.82;100.00
9764;BME280;4921;43.214;27.936;2023-05-11T08:15:02;101833.22;;;14.87;100.00
9764;BME280;4921;43.214;27.936;2023-05-11T08:17:30;101837.09;;;14.94;100.00
9764;BME280;4921;43.214;27.936;2023-05-11T08:19:58;101837.19;;;15.03;100.00
9764;BME280;4921;43.214;27.936;2023-05-11T08:22:25;101829.97;;;15.27;100.00
9764;BME280;4921;43.214;27.936;2023-05-11T08:24:52;101830.31;;;15.34;100.00
9764;BME280;4921;43.214;27.936;2023-05-11T08:27:19;101827.88;;;15.42;100.00
9764;BME280;4921;43.214;27.936;2023-05-11T08:29:46;101832.25;;;15.43;100.00
9764;BME280;4921;43.214;27.936;2023-05-11T08:32:13;101826.56;;;15.59;100.00
9764;BME280;4921;43.214;27.936;2023-05-11T08:34:40;101826.66;;;15.57;100.00
9764;BME280;4921;43.214;27.936;2023-05-11T08:37:09;101817.28;;;15.53;100.00
9764;BME280;4921;43.214;27.936;2023-05-11T08:39:35;101818.50;;;15.49;100.00
9764;BME280;4921;43.214;27.936;2023-05-11T08:42:03;101824.41;;;15.31;100.00
9764;BME280;4921;43.214;27.936;2023-05-11T08:44:33;101828.78;;;14.98;100.00
9764;BME280;4921;43.214;27.936;2023-05-11T08:47:02;101819.84;;;14.99;100.00
9764;BME280;4921;43.214;27.936;2023-05-11T08:49:30;101814.78;;;15.07;100.00
9764;BME280;4921;43.214;27.936;2023-05-11T08:51:58;101810.97;;;15.11;100.00
9764;BME280;4921;43.214;27.936;2023-05-11T08:54:30;101811.81;;;15.01;100.00
9764;BME280;4921;43.214;27.936;2023-05-11T08:56:59;101816.13;;;15.13;100.00
9764;BME280;4921;43.214;27.936;2023-05-11T08:59:27;101808.66;;;14.96;100.00
9764;BME280;4921;43.214;27.936;2023-05-11T09:01:55;101795.16;;;14.99;100.00
9764;BME280;4921;43.214;27.936;2023-05-11T09:04:23;101790.00;;;15.08;100.00
9764;BME280;4921;43.214;27.936;2023-05-11T09:06:51;101791.66;;;15.20;100.00
9764;BME280;4921;43.214;27.936;2023-05-11T09:09:18;101793.69;;;15.28;100.00
9764;BME280;4921;43.214;27.936;2023-05-11T09:11:47;101790.41;;;15.47;100.00
9764;BME280;4921;43.214;27.936;2023-05-11T09:14:15;101795.00;;;15.34;100.00
9764;BME280;4921;43.214;27.936;2023-05-11T09:16:42;101804.28;;;15.39;100.00
9764;BME280;4921;43.214;27.936;2023-05-11T09:19:13;101787.75;;;15.36;100.00
9764;BME280;4921;43.214;27.936;2023-05-11T09:21:41;101790.66;;;15.55;100.00
9764;BME280;4921;43.214;27.936;2023-05-11T09:24:10;101792.97;;;15.80;100.00
9764;BME280;4921;43.214;27.936;2023-05-11T09:26:37;101790.22;;;16.02;100.00
9764;BME280;4921;43.214;27.936;2023-05-11T09:29:05;101793.84;;;16.22;100.00
9764;BME280;4921;43.214;27.936;2023-05-11T09:31:40;101787.72;;;16.21;100.00
9764;BME280;4921;43.214;27.936;2023-05-11T09:34:12;101787.69;;;16.00;100.00
9764;BME280;4921;43.214;27.936;2023-05-11T09:36:39;101783.22;;;16.01;100.00
9764;BME280;4921;43.214;27.936;2023-05-11T09:39:07;101765.25;;;16.25;100.00
9764;BME280;4921;43.214;27.936;2023-05-11T09:41:34;101770.78;;;16.22;100.00
9764;BME280;4921;43.214;27.936;2023-05-11T09:44:10;101773.13;;;16.36;100.00
9764;BME280;4921;43.214;27.936;2023-05-11T09:46:38;101777.66;;;16.25;100.00
9764;BME280;4921;43.214;27.936;2023-05-11T09:49:05;101769.75;;;16.14;100.00
9764;BME280;4921;43.214;27.936;2023-05-11T09:51:35;101789.59;;;16.51;100.00
9764;BME280;4921;43.214;27.936;2023-05-11T09:54:15;101790.69;;;16.28;100.00
9764;BME280;4921;43.214;27.936;2023-05-11T09:56:44;101782.41;;;16.62;100.00
9764;BME280;4921;43.214;27.936;2023-05-11T09:59:14;101781.88;;;16.68;100.00
9764;BME280;4921;43.214;27.936;2023-05-11T10:01:43;101780.22;;;16.77;100.00
9764;BME280;4921;43.214;27.936;2023-05-11T10:04:09;101789.44;;;16.73;100.00
9764;BME280;4921;43.214;27.936;2023-05-11T10:06:47;101785.69;;;16.55;100.00
9764;BME280;4921;43.214;27.936;2023-05-11T10:09:15;101776.78;;;16.56;100.00
9764;BME280;4921;43.214;27.936;2023-05-11T10:11:44;101774.13;;;16.86;100.00
9764;BME280;4921;43.214;27.936;2023-05-11T10:14:13;101785.84;;;16.84;100.00
9764;BME280;4921;43.214;27.936;2023-05-11T10:16:41;101775.22;;;16.84;100.00
9764;BME280;4921;43.214;27.936;2023-05-11T10:19:09;101780.53;;;16.84;100.00
9764;BME280;4921;43.214;27.936;2023-05-11T10:21:37;101774.31;;;16.73;100.00
9764;BME280;4921;43.214;27.936;2023-05-11T10:24:05;101775.16;;;16.74;100.00
9764;BME280;4921;43.214;27.936;2023-05-11T10:26:32;101781.22;;;16.86;100.00
9764;BME280;4921;43.214;27.936;2023-05-11T10:29:00;101774.59;;;17.01;100.00
9764;BME280;4921;43.214;27.936;2023-05-11T10:31:30;101769.56;;;17.17;100.00
9764;BME280;4921;43.214;27.936;2023-05-11T10:33:59;101766.66;;;16.80;100.00
9764;BME280;4921;43.214;27.936;2023-05-11T10:36:26;101770.78;;;16.94;100.00
9764;BME280;4921;43.214;27.936;2023-05-11T10:38:53;101783.09;;;17.04;100.00
9764;BME280;4921;43.214;27.936;2023-05-11T10:41:46;101770.28;;;17.19;100.00
9764;BME280;4921;43.214;27.936;2023-05-11T10:47:40;101777.28;;;17.20;100.00
9764;BME280;4921;43.214;27.936;2023-05-11T10:50:35;101782.34;;;17.23;100.00
9764;BME280;4921;43.214;27.936;2023-05-11T10:53:18;101772.38;;;17.06;100.00
9764;BME280;4921;43.214;27.936;2023-05-11T10:56:10;101775.47;;;16.81;100.00
9764;BME280;4921;43.214;27.936;2023-05-11T10:58:55;101781.25;;;16.95;100.00
9764;BME280;4921;43.214;27.936;2023-05-11T11:01:36;101781.69;;;17.00;100.00
9764;BME280;4921;43.214;27.936;2023-05-11T11:04:07;101776.38;;;17.00;100.00
9764;BME280;4921;43.214;27.936;2023-05-11T11:06:35;101784.16;;;17.32;100.00
9764;BME280;4921;43.214;27.936;2023-05-11T11:09:04;101786.72;;;17.33;100.00
9764;BME280;4921;43.214;27.936;2023-05-11T11:11:34;101778.78;;;17.03;100.00
9764;BME280;4921;43.214;27.936;2023-05-11T11:14:04;101790.47;;;16.91;100.00
9764;BME280;4921;43.214;27.936;2023-05-11T11:16:32;101790.44;;;17.12;100.00
9764;BME280;4921;43.214;27.936;2023-05-11T11:19:37;101783.72;;;16.77;100.00
9764;BME280;4921;43.214;27.936;2023-05-11T11:22:05;101788.56;;;17.03;100.00
9764;BME280;4921;43.214;27.936;2023-05-11T11:24:42;101776.19;;;17.22;100.00
9764;BME280;4921;43.214;27.936;2023-05-11T11:27:09;101781.66;;;17.30;100.00
9764;BME280;4921;43.214;27.936;2023-05-11T11:29:38;101780.97;;;17.38;100.00
9764;BME280;4921;43.214;27.936;2023-05-11T11:32:24;101774.19;;;17.05;100.00
9764;BME280;4921;43.214;27.936;2023-05-11T11:34:53;101768.56;;;17.08;100.00
9764;BME280;4921;43.214;27.936;2023-05-11T11:37:20;101766.50;;;16.72;100.00
9764;BME280;4921;43.214;27.936;2023-05-11T11:39:52;101766.22;;;16.75;100.00
9764;BME280;4921;43.214;27.936;2023-05-11T11:42:33;101780.22;;;16.77;100.00
9764;BME280;4921;43.214;27.936;2023-05-11T11:45:27;101770.06;;;16.61;100.00
9764;BME280;4921;43.214;27.936;2023-05-11T11:48:05;101766.63;;;16.70;100.00
9764;BME280;4921;43.214;27.936;2023-05-11T11:50:33;101762.28;;;16.69;100.00
9764;BME280;4921;43.214;27.936;2023-05-11T11:53:01;101766.25;;;16.54;100.00
9764;BME280;4921;43.214;27.936;2023-05-11T11:55:46;101752.72;;;16.57;100.00
9764;BME280;4921;43.214;27.936;2023-05-11T12:01:14;101759.59;;;16.19;100.00
9764;BME280;4921;43.214;27.936;2023-05-11T12:03:43;101745.03;;;15.92;100.00
9764;BME280;4921;43.214;27.936;2023-05-11T12:06:12;101764.53;;;16.23;100.00
9764;BME280;4921;43.214;27.936;2023-05-11T12:08:41;101741.50;;;16.24;100.00
9764;BME280;4921;43.214;27.936;2023-05-11T12:11:08;101766.50;;;16.31;100.00
9764;BME280;4921;43.214;27.936;2023-05-11T12:13:35;101749.38;;;16.14;100.00
9764;BME280;4921;43.214;27.936;2023-05-11T12:16:09;101757.72;;;15.89;100.00
9764;BME280;4921;43.214;27.936;2023-05-11T12:18:36;101758.13;;;16.05;100.00
9764;BME280;4921;43.214;27.936;2023-05-11T12:21:04;101749.50;;;16.13;100.00
9764;BME280;4921;43.214;27.936;2023-05-11T12:23:32;101754.50;;;16.06;100.00
9764;BME280;4921;43.214;27.936;2023-05-11T12:25:59;101755.66;;;16.34;100.00
9764;BME280;4921;43.214;27.936;2023-05-11T12:28:27;101751.13;;;16.45;100.00
9764;BME280;4921;43.214;27.936;2023-05-11T12:30:54;101746.59;;;16.16;100.00
9764;BME280;4921;43.214;27.936;2023-05-11T12:33:22;101751.63;;;16.39;100.00
9764;BME280;4921;43.214;27.936;2023-05-11T12:35:51;101747.97;;;16.61;100.00
9764;BME280;4921;43.214;27.936;2023-05-11T12:38:18;101738.16;;;16.31;100.00
9764;BME280;4921;43.214;27.936;2023-05-11T12:40:48;101741.66;;;16.32;100.00
9764;BME280;4921;43.214;27.936;2023-05-11T12:43:16;101739.41;;;15.86;100.00
9764;BME280;4921;43.214;27.936;2023-05-11T12:45:44;101728.94;;;15.84;100.00
9764;BME280;4921;43.214;27.936;2023-05-11T12:48:11;101732.16;;;15.88;100.00
9764;BME280;4921;43.214;27.936;2023-05-11T12:50:39;101720.53;;;16.00;100.00
9764;BME280;4921;43.214;27.936;2023-05-11T12:53:13;101719.88;;;15.87;100.00
9764;BME280;4921;43.214;27.936;2023-05-11T12:55:41;101717.78;;;15.70;100.00
9764;BME280;4921;43.214;27.936;2023-05-11T12:58:11;101693.50;;;15.54;100.00
9764;BME280;4921;43.214;27.936;2023-05-11T13:00:49;101697.97;;;15.53;100.00
9764;BME280;4921;43.214;27.936;2023-05-11T13:03:20;101706.44;;;15.47;100.00
9764;BME280;4921;43.214;27.936;2023-05-11T13:05:47;101711.16;;;15.33;100.00
9764;BME280;4921;43.214;27.936;2023-05-11T13:08:17;101708.00;;;15.39;100.00
9764;BME280;4921;43.214;27.936;2023-05-11T13:10:44;101711.50;;;15.39;100.00